Time;durP1;ratioP1;P1;durP2;ratioP2;P2;SDS_P1;SDS_P2;PMS_P1;PMS_P2;Temp;Humidity;BMP_temperature;BMP_pressure;BME280_temperature;BME280_humidity;BME280_pressure;Samples;Min_cycle;Max_cycle;Signal;HPM_P1;HPM_P2
2021/12/29 00:00:58;;;;;;;8.68;6.85;;;2.30;99.90;;;;;;5021561;28;20263;-53
2021/12/29 00:03:27;;;;;;;9.88;7.15;;;2.20;99.90;;;;;;5021196;28;20201;-54
2021/12/29 00:05:54;;;;;;;10.07;7.00;;;2.30;99.90;;;;;;5021263;28;20212;-48
2021/12/29 00:08:21;;;;;;;8.30;5.25;;;2.20;99.90;;;;;;5021053;28;20209;-49
2021/12/29 00:10:54;;;;;;;7.65;6.20;;;2.30;99.90;;;;;;5021165;28;20275;-50
2021/12/29 00:13:23;;;;;;;6.53;5.75;;;2.30;99.90;;;;;;5020850;28;20222;-53
2021/12/29 00:15:57;;;;;;;5.18;4.57;;;2.30;99.90;;;;;;5020762;28;20205;-53
2021/12/29 00:18:30;;;;;;;5.97;5.38;;;2.30;99.90;;;;;;5021380;28;20221;-51
2021/12/29 00:20:58;;;;;;;6.93;5.07;;;2.30;99.90;;;;;;5020867;28;20229;-52
2021/12/29 00:23:26;;;;;;;7.22;5.68;;;2.30;99.90;;;;;;5021125;28;20418;-49
2021/12/29 00:25:54;;;;;;;7.68;5.13;;;2.30;99.90;;;;;;5020586;28;20201;-51
2021/12/29 00:28:24;;;;;;;8.07;6.28;;;2.40;99.90;;;;;;5020756;28;20200;-51
2021/12/29 00:30:51;;;;;;;5.63;4.30;;;2.40;99.90;;;;;;5020314;28;20259;-47
2021/12/29 00:33:19;;;;;;;8.38;5.22;;;2.30;99.90;;;;;;5020866;28;20222;-52
2021/12/29 00:35:47;;;;;;;7.82;5.07;;;2.30;99.90;;;;;;5019931;28;20237;-51
2021/12/29 00:38:15;;;;;;;4.30;3.63;;;2.30;99.90;;;;;;5021100;28;20201;-48
2021/12/29 00:40:42;;;;;;;8.30;4.07;;;2.30;99.90;;;;;;5020617;28;20226;-50
2021/12/29 00:43:10;;;;;;;5.38;4.88;;;2.30;99.90;;;;;;5020755;28;20250;-48
2021/12/29 00:45:39;;;;;;;8.68;5.03;;;2.30;99.90;;;;;;5020840;28;20248;-48
2021/12/29 00:48:12;;;;;;;6.25;5.65;;;2.40;99.90;;;;;;5020123;28;20212;-50
2021/12/29 00:50:41;;;;;;;5.63;4.45;;;2.30;99.90;;;;;;5020371;28;20291;-48
2021/12/29 00:53:09;;;;;;;4.70;3.45;;;2.30;99.90;;;;;;5020284;28;20236;-48
2021/12/29 00:55:37;;;;;;;6.72;4.85;;;2.40;99.90;;;;;;5020542;28;20443;-54
2021/12/29 00:58:07;;;;;;;7.30;5.05;;;2.50;99.90;;;;;;5019963;28;20436;-49
2021/12/29 01:00:37;;;;;;;3.53;3.22;;;2.50;99.90;;;;;;5020617;28;20203;-50
2021/12/29 01:03:05;;;;;;;4.25;3.00;;;2.50;99.90;;;;;;5020260;28;20249;-47
2021/12/29 01:05:32;;;;;;;3.80;3.35;;;2.60;99.90;;;;;;5020761;28;20416;-49
2021/12/29 01:08:00;;;;;;;4.72;4.32;;;2.50;99.90;;;;;;5020012;28;20263;-47
2021/12/29 01:10:27;;;;;;;5.55;4.03;;;2.50;99.90;;;;;;5020677;28;20403;-48
2021/12/29 01:12:58;;;;;;;4.70;4.13;;;2.50;99.90;;;;;;5019112;28;20221;-51
2021/12/29 01:15:36;;;;;;;3.75;3.35;;;2.60;99.90;;;;;;5019285;28;20197;-48
2021/12/29 01:18:06;;;;;;;6.63;4.13;;;2.60;99.90;;;;;;5019546;28;20209;-49
2021/12/29 01:20:33;;;;;;;3.97;3.47;;;2.60;99.90;;;;;;5019744;28;20201;-49
2021/12/29 01:23:01;;;;;;;3.17;2.72;;;2.60;99.90;;;;;;5020060;28;20216;-53
2021/12/29 01:25:29;;;;;;;5.13;3.10;;;2.60;99.90;;;;;;5019764;28;20230;-49
2021/12/29 01:27:56;;;;;;;4.85;3.60;;;2.60;99.90;;;;;;5019634;28;20255;-51
2021/12/29 01:30:24;;;;;;;4.40;3.35;;;2.60;99.90;;;;;;5019674;28;20201;-49
2021/12/29 01:32:52;;;;;;;5.70;3.38;;;2.80;99.90;;;;;;5019763;28;20222;-50
2021/12/29 01:35:19;;;;;;;2.63;2.42;;;2.80;99.90;;;;;;5019899;28;20423;-48
2021/12/29 01:37:46;;;;;;;4.47;3.00;;;2.80;99.90;;;;;;5019581;28;20199;-48
2021/12/29 01:40:17;;;;;;;4.13;3.35;;;2.80;99.90;;;;;;5019728;28;20230;-51
2021/12/29 01:42:45;;;;;;;8.38;6.20;;;2.80;99.90;;;;;;5019780;28;20248;-48
2021/12/29 01:45:13;;;;;;;19.52;10.82;;;2.70;99.90;;;;;;5019860;28;20566;-48
2021/12/29 01:47:41;;;;;;;10.18;7.82;;;2.80;99.90;;;;;;5020521;28;20209;-55
2021/12/29 01:50:10;;;;;;;10.88;5.68;;;2.70;99.90;;;;;;5023756;28;20244;-53
2021/12/29 01:52:40;;;;;;;5.70;4.55;;;2.80;99.90;;;;;;5022838;28;20581;-52
2021/12/29 01:55:11;;;;;;;4.65;3.25;;;2.80;99.90;;;;;;5023766;28;20210;-51
2021/12/29 01:57:40;;;;;;;4.43;3.42;;;2.90;99.90;;;;;;5023464;28;20267;-50
2021/12/29 02:00:11;;;;;;;4.93;3.65;;;2.70;99.90;;;;;;5023715;28;20206;-54
2021/12/29 02:02:39;;;;;;;4.80;3.58;;;2.70;99.90;;;;;;5023253;28;20419;-51
2021/12/29 02:05:07;;;;;;;7.60;4.70;;;2.70;99.90;;;;;;5022439;28;20208;-50
2021/12/29 02:07:35;;;;;;;4.30;2.92;;;2.70;99.90;;;;;;5023089;28;20235;-49
2021/12/29 02:10:04;;;;;;;3.95;3.55;;;2.90;99.90;;;;;;5023255;28;20201;-53
2021/12/29 02:12:31;;;;;;;6.55;4.15;;;2.90;99.90;;;;;;5023209;28;20310;-50
2021/12/29 02:14:58;;;;;;;32.45;26.33;;;2.90;99.90;;;;;;5022740;28;20243;-52
2021/12/29 02:17:25;;;;;;;8.00;6.68;;;3.00;99.90;;;;;;5023289;28;20204;-54
2021/12/29 02:19:53;;;;;;;5.47;3.80;;;2.90;99.90;;;;;;5022556;28;20197;-51
2021/12/29 02:22:35;;;;;;;8.48;3.92;;;3.10;99.90;;;;;;5023291;28;20218;-50
2021/12/29 02:27:37;;;;;;;6.50;4.05;;;3.20;99.90;;;;;;5022953;28;20196;-50
2021/12/29 02:30:05;;;;;;;6.15;3.85;;;3.20;99.90;;;;;;5021827;28;20239;-52
2021/12/29 02:32:32;;;;;;;5.43;4.50;;;3.30;99.90;;;;;;5023134;28;20550;-54
2021/12/29 02:34:59;;;;;;;6.82;6.13;;;3.10;99.90;;;;;;5022774;28;20214;-49
2021/12/29 02:37:29;;;;;;;6.00;5.18;;;3.10;99.90;;;;;;5022835;28;20198;-48
2021/12/29 02:39:56;;;;;;;4.70;4.30;;;3.10;99.90;;;;;;5023268;28;20197;-51
2021/12/29 02:42:27;;;;;;;5.10;4.60;;;3.20;99.90;;;;;;5023423;28;20221;-54
2021/12/29 02:44:55;;;;;;;5.22;4.70;;;3.00;99.90;;;;;;5023111;28;20200;-51
2021/12/29 02:47:22;;;;;;;6.15;5.05;;;3.10;99.90;;;;;;5022464;28;20213;-51
2021/12/29 02:49:49;;;;;;;7.38;5.82;;;3.10;99.90;;;;;;5023188;28;20258;-50
2021/12/29 02:52:19;;;;;;;5.10;4.00;;;3.00;99.90;;;;;;5025819;28;20234;-49
2021/12/29 02:54:46;;;;;;;5.05;4.65;;;3.10;99.90;;;;;;5026209;28;20217;-50
2021/12/29 02:57:13;;;;;;;4.95;4.45;;;3.20;99.90;;;;;;5023185;28;20346;-53
2021/12/29 02:59:40;;;;;;;5.82;5.13;;;3.20;99.90;;;;;;5022454;28;20229;-49
2021/12/29 03:02:07;;;;;;;4.82;4.40;;;3.10;99.90;;;;;;5022195;28;20265;-51
2021/12/29 03:04:35;;;;;;;4.22;3.85;;;3.00;99.90;;;;;;5022738;28;20399;-50
2021/12/29 03:07:03;;;;;;;3.88;3.20;;;3.20;99.90;;;;;;5022057;28;20203;-56
2021/12/29 03:09:32;;;;;;;4.68;4.28;;;3.20;99.90;;;;;;5022059;28;20206;-48
2021/12/29 03:11:59;;;;;;;5.78;4.43;;;3.30;99.90;;;;;;5022171;28;20302;-50
2021/12/29 03:14:26;;;;;;;6.68;6.03;;;3.30;99.90;;;;;;5021981;28;20226;-48
2021/12/29 03:16:53;;;;;;;3.85;3.55;;;3.20;99.90;;;;;;5021710;28;20198;-49
2021/12/29 03:19:21;;;;;;;6.13;4.70;;;3.40;99.90;;;;;;5021329;28;20294;-49
2021/12/29 03:21:50;;;;;;;8.57;5.38;;;3.40;99.90;;;;;;5022051;28;20223;-50
2021/12/29 03:24:20;;;;;;;5.55;5.05;;;3.40;99.90;;;;;;5022445;28;20204;-56
2021/12/29 03:26:47;;;;;;;4.60;4.20;;;3.30;99.90;;;;;;5023381;28;20226;-51
2021/12/29 03:29:15;;;;;;;9.85;7.75;;;3.20;99.90;;;;;;5023428;28;20221;-51
2021/12/29 03:31:44;;;;;;;6.72;5.57;;;3.50;99.90;;;;;;5022107;28;20221;-49
2021/12/29 03:34:11;;;;;;;6.57;5.55;;;3.60;99.90;;;;;;5021871;28;20300;-48
2021/12/29 03:36:38;;;;;;;4.38;3.58;;;3.60;99.90;;;;;;5015227;28;20220;-50
2021/12/29 03:39:07;;;;;;;7.65;5.20;;;3.40;99.90;;;;;;5021486;28;20202;-49
2021/12/29 03:41:34;;;;;;;5.45;4.72;;;3.20;99.90;;;;;;5021865;28;20305;-50
2021/12/29 03:44:01;;;;;;;7.72;4.40;;;3.10;99.90;;;;;;5021721;28;20224;-51
2021/12/29 03:46:28;;;;;;;4.93;4.53;;;3.00;99.90;;;;;;5021067;28;20259;-53
2021/12/29 03:48:56;;;;;;;5.45;4.15;;;3.10;99.90;;;;;;5021494;28;20500;-52
2021/12/29 03:51:23;;;;;;;4.57;3.72;;;3.10;99.90;;;;;;5021253;28;20233;-50
2021/12/29 03:53:51;;;;;;;5.85;3.95;;;3.00;99.90;;;;;;5021544;28;20218;-51
2021/12/29 03:56:18;;;;;;;6.07;5.47;;;2.80;99.90;;;;;;5021040;28;20194;-52
2021/12/29 03:58:45;;;;;;;6.32;4.75;;;2.70;99.90;;;;;;5021453;28;20197;-50
2021/12/29 04:01:15;;;;;;;5.63;4.90;;;2.70;99.90;;;;;;5021084;28;20233;-51
2021/12/29 04:03:45;;;;;;;9.82;5.43;;;2.50;99.90;;;;;;5021143;28;20202;-52
2021/12/29 04:06:15;;;;;;;5.95;4.15;;;2.60;99.90;;;;;;5021000;28;20504;-48
2021/12/29 04:08:42;;;;;;;4.47;4.07;;;2.60;99.90;;;;;;5020947;28;20221;-51
2021/12/29 04:11:13;;;;;;;6.03;5.53;;;2.80;99.90;;;;;;5020368;28;20229;-49
2021/12/29 04:13:40;;;;;;;6.60;5.00;;;2.70;99.90;;;;;;5020715;28;20474;-51
2021/12/29 04:16:15;;;;;;;4.07;3.78;;;2.80;99.90;;;;;;5020842;28;20535;-47
2021/12/29 04:19:08;;;;;;;4.90;4.40;;;2.70;99.90;;;;;;5020824;28;20198;-49
2021/12/29 04:21:37;;;;;;;7.55;3.80;;;2.60;99.90;;;;;;5020711;28;20475;-51
2021/12/29 04:24:06;;;;;;;4.75;4.20;;;2.60;99.90;;;;;;5020505;28;20205;-48
2021/12/29 04:26:36;;;;;;;4.70;4.30;;;2.70;99.90;;;;;;5020988;28;20200;-48
2021/12/29 04:29:05;;;;;;;4.75;4.30;;;2.70;99.90;;;;;;5020445;28;20511;-48
2021/12/29 04:31:33;;;;;;;6.30;5.25;;;2.70;99.90;;;;;;5020794;28;20456;-51
2021/12/29 04:34:01;;;;;;;6.07;4.72;;;2.60;99.90;;;;;;5020315;28;20240;-53
2021/12/29 04:36:28;;;;;;;6.22;4.55;;;2.60;99.90;;;;;;5020586;28;20244;-52
2021/12/29 04:38:58;;;;;;;4.55;4.15;;;2.60;99.90;;;;;;5020312;28;20200;-51
2021/12/29 04:41:25;;;;;;;6.93;5.03;;;2.60;99.90;;;;;;5020393;28;20214;-52
2021/12/29 04:43:53;;;;;;;9.32;6.68;;;2.70;99.90;;;;;;5020613;28;20201;-49
2021/12/29 04:46:27;;;;;;;8.48;6.10;;;2.70;99.90;;;;;;5002699;28;20210;-53
2021/12/29 04:49:00;;;;;;;9.23;7.97;;;2.70;99.90;;;;;;5020384;28;20284;-52
2021/12/29 04:51:36;;;;;;;6.85;6.25;;;2.80;99.90;;;;;;5048000;22;20227;-54
2021/12/29 04:54:05;;;;;;;8.88;7.07;;;3.00;99.90;;;;;;5054527;28;20545;-54
2021/12/29 04:56:34;;;;;;;7.40;6.70;;;3.00;99.90;;;;;;5056791;28;20196;-51
2021/12/29 04:59:01;;;;;;;8.75;6.38;;;3.00;99.90;;;;;;5060544;28;20196;-51
2021/12/29 05:01:30;;;;;;;6.60;5.97;;;3.10;99.90;;;;;;5059934;28;20242;-54
2021/12/29 05:03:57;;;;;;;10.70;8.15;;;2.90;99.90;;;;;;5060647;28;20493;-52
2021/12/29 05:09:10;;;;;;;11.20;6.63;;;3.00;99.90;;;;;;5060477;28;20207;-53
2021/12/29 05:11:38;;;;;;;9.50;8.00;;;2.90;99.90;;;;;;5063594;28;20224;-53
2021/12/29 05:14:05;;;;;;;10.40;7.90;;;2.90;99.90;;;;;;5064130;28;20527;-50
2021/12/29 05:16:32;;;;;;;10.68;7.03;;;2.80;99.90;;;;;;5060326;28;20191;-53
2021/12/29 05:18:59;;;;;;;12.85;8.20;;;2.90;99.90;;;;;;5059732;28;20196;-53
2021/12/29 05:21:27;;;;;;;12.10;9.70;;;3.00;99.90;;;;;;5059604;28;20215;-50
2021/12/29 05:23:54;;;;;;;15.93;8.40;;;2.90;99.90;;;;;;5059750;28;20204;-51
2021/12/29 05:26:23;;;;;;;9.75;8.60;;;2.80;99.90;;;;;;5060404;28;20238;-50
2021/12/29 05:28:50;;;;;;;16.00;9.75;;;2.80;99.90;;;;;;5060082;28;20207;-51
2021/12/29 05:31:17;;;;;;;15.90;10.30;;;2.60;99.90;;;;;;5060176;28;20219;-55
2021/12/29 05:33:44;;;;;;;24.17;15.98;;;2.80;99.90;;;;;;5060481;28;20244;-53
2021/12/29 05:36:12;;;;;;;22.23;14.00;;;2.80;99.90;;;;;;5061037;28;20564;-49
2021/12/29 05:38:39;;;;;;;52.95;14.77;;;3.00;99.90;;;;;;5060010;28;20196;-52
2021/12/29 05:41:07;;;;;;;66.78;35.90;;;3.30;99.90;;;;;;5059735;28;20201;-50
2021/12/29 05:43:34;;;;;;;17.38;11.88;;;3.30;99.90;;;;;;5060457;28;20419;-50
2021/12/29 05:46:01;;;;;;;18.50;10.88;;;3.40;99.90;;;;;;5059730;28;20196;-51
2021/12/29 05:48:29;;;;;;;22.00;13.10;;;3.30;99.90;;;;;;5060263;28;20219;-53
2021/12/29 05:50:56;;;;;;;11.73;10.50;;;3.00;99.90;;;;;;5059744;28;20204;-51
2021/12/29 05:53:23;;;;;;;15.68;12.00;;;3.10;99.90;;;;;;5060202;28;20527;-49
2021/12/29 05:55:51;;;;;;;13.38;11.45;;;3.20;99.90;;;;;;5059383;28;20322;-50
2021/12/29 05:58:18;;;;;;;17.77;11.95;;;3.20;99.90;;;;;;5059919;28;20250;-50
2021/12/29 06:00:45;;;;;;;17.95;12.55;;;3.20;99.90;;;;;;5060059;28;20204;-49
2021/12/29 06:03:14;;;;;;;23.13;14.88;;;3.40;99.90;;;;;;5059818;28;20220;-51
2021/12/29 06:05:41;;;;;;;16.15;12.30;;;3.40;99.90;;;;;;5059782;28;20498;-52
2021/12/29 06:08:09;;;;;;;13.50;11.00;;;3.20;99.90;;;;;;5059243;28;20201;-49
2021/12/29 06:10:36;;;;;;;17.42;12.13;;;3.30;99.90;;;;;;5059539;28;20205;-53
2021/12/29 06:13:04;;;;;;;15.55;11.95;;;3.10;99.90;;;;;;5059307;28;20289;-53
2021/12/29 06:15:31;;;;;;;16.35;12.70;;;3.00;99.90;;;;;;5059244;28;20264;-51
2021/12/29 06:17:58;;;;;;;19.20;13.00;;;3.10;99.90;;;;;;5059129;28;20203;-50
2021/12/29 06:20:26;;;;;;;19.83;14.07;;;3.20;99.90;;;;;;5059118;28;20205;-54
2021/12/29 06:22:53;;;;;;;19.60;13.63;;;3.20;99.90;;;;;;5059286;28;20460;-50
2021/12/29 06:25:21;;;;;;;36.92;20.15;;;3.40;99.90;;;;;;5059361;28;20531;-52
2021/12/29 06:27:50;;;;;;;17.85;13.45;;;3.40;99.90;;;;;;5059726;28;20246;-52
2021/12/29 06:30:17;;;;;;;15.07;11.90;;;3.60;99.90;;;;;;5059137;28;20202;-50
2021/12/29 06:32:45;;;;;;;18.88;13.88;;;3.80;99.90;;;;;;5059671;28;20229;-49
2021/12/29 06:35:14;;;;;;;13.23;10.75;;;3.90;99.90;;;;;;5062451;28;20442;-53
2021/12/29 06:37:43;;;;;;;16.85;13.23;;;3.90;99.90;;;;;;5062503;28;20254;-53
2021/12/29 06:40:12;;;;;;;14.20;11.73;;;3.80;99.90;;;;;;5062335;28;20209;-50
2021/12/29 06:42:41;;;;;;;18.40;14.48;;;3.80;99.90;;;;;;5063052;28;20226;-53
2021/12/29 06:45:11;;;;;;;16.02;10.80;;;3.70;99.90;;;;;;5063006;28;20411;-52
2021/12/29 06:47:39;;;;;;;18.45;12.55;;;3.90;99.90;;;;;;5052175;28;20557;-49
2021/12/29 06:50:07;;;;;;;21.85;15.40;;;4.00;99.90;;;;;;5058406;28;20212;-51
2021/12/29 06:52:35;;;;;;;11.88;10.68;;;4.20;99.90;;;;;;5064151;28;20247;-55
2021/12/29 06:55:04;;;;;;;16.30;13.45;;;4.20;99.90;;;;;;5060769;28;20228;-52
2021/12/29 06:57:31;;;;;;;18.30;12.65;;;4.30;99.90;;;;;;5062855;28;20380;-53
2021/12/29 06:59:58;;;;;;;17.15;13.45;;;4.20;99.90;;;;;;5063381;28;20205;-50
2021/12/29 07:02:25;;;;;;;17.48;13.05;;;4.00;99.90;;;;;;5055568;28;20270;-52
2021/12/29 07:04:52;;;;;;;19.50;13.40;;;3.90;99.90;;;;;;5062889;28;20268;-49
2021/12/29 07:07:21;;;;;;;22.17;14.40;;;3.80;99.90;;;;;;5061819;28;20204;-51
2021/12/29 07:09:48;;;;;;;20.13;13.30;;;3.80;99.90;;;;;;5058920;28;20220;-51
2021/12/29 07:12:16;;;;;;;19.33;12.27;;;3.70;99.90;;;;;;5061638;28;20289;-53
2021/12/29 07:14:43;;;;;;;20.80;15.10;;;3.80;99.90;;;;;;5062182;28;20220;-54
2021/12/29 07:17:10;;;;;;;17.45;13.43;;;3.80;99.90;;;;;;5061495;28;20206;-49
2021/12/29 07:19:37;;;;;;;20.50;13.90;;;4.10;99.90;;;;;;5060892;28;20198;-53
2021/12/29 07:22:06;;;;;;;15.60;13.02;;;4.20;99.90;;;;;;5060045;28;20420;-49
2021/12/29 07:24:34;;;;;;;17.90;15.20;;;4.20;99.90;;;;;;5061448;28;20293;-50
2021/12/29 07:27:02;;;;;;;19.67;14.82;;;4.10;99.90;;;;;;5061483;28;20200;-51
2021/12/29 07:29:30;;;;;;;13.90;12.05;;;3.90;99.90;;;;;;5061346;28;20208;-51
2021/12/29 07:31:58;;;;;;;21.98;13.05;;;4.00;99.90;;;;;;5060972;28;20282;-54
2021/12/29 07:34:26;;;;;;;19.65;13.85;;;3.80;99.90;;;;;;5061151;28;20219;-53
2021/12/29 07:36:53;;;;;;;14.15;10.45;;;4.00;99.90;;;;;;5061220;28;20495;-51
2021/12/29 07:39:21;;;;;;;11.52;9.48;;;3.80;99.90;;;;;;5061477;28;20606;-52
2021/12/29 07:41:49;;;;;;;20.25;12.50;;;3.90;99.90;;;;;;5060971;28;20218;-50
2021/12/29 07:44:17;;;;;;;16.70;13.27;;;3.90;99.90;;;;;;5060284;28;20714;-50
2021/12/29 07:46:48;;;;;;;18.00;13.15;;;3.70;99.90;;;;;;5060805;28;20545;-54
2021/12/29 07:49:15;;;;;;;18.02;13.10;;;3.80;99.90;;;;;;5061491;28;20466;-52
2021/12/29 07:51:44;;;;;;;17.25;12.77;;;3.70;99.90;;;;;;5060863;28;20257;-52
2021/12/29 07:54:13;;;;;;;15.18;12.65;;;3.80;99.90;;;;;;5061104;28;20439;-52
2021/12/29 07:56:44;;;;;;;13.02;11.63;;;4.00;99.90;;;;;;5060686;28;20221;-54
2021/12/29 07:59:12;;;;;;;19.15;11.90;;;3.80;99.90;;;;;;5060640;28;20228;-51
2021/12/29 08:01:40;;;;;;;16.52;10.80;;;3.90;99.90;;;;;;5060658;28;20243;-55
2021/12/29 08:04:10;;;;;;;15.25;11.70;;;3.60;99.90;;;;;;5061267;28;20232;-53
2021/12/29 08:06:37;;;;;;;13.70;10.70;;;3.50;99.90;;;;;;5060917;28;20389;-51
2021/12/29 08:09:07;;;;;;;12.82;11.07;;;3.60;99.90;;;;;;5060476;28;20248;-50
2021/12/29 08:11:34;;;;;;;15.15;12.00;;;3.80;99.90;;;;;;5060621;28;20223;-53
2021/12/29 08:14:01;;;;;;;13.75;12.32;;;3.80;99.90;;;;;;5060937;28;20198;-54
2021/12/29 08:16:29;;;;;;;27.90;19.02;;;4.00;99.90;;;;;;5060674;28;20267;-56
2021/12/29 08:18:56;;;;;;;25.35;18.45;;;4.10;99.90;;;;;;5060470;28;20692;-54
2021/12/29 08:21:23;;;;;;;40.88;17.58;;;4.20;99.90;;;;;;5060423;28;20557;-49
2021/12/29 08:23:51;;;;;;;21.08;15.88;;;4.20;99.90;;;;;;5061705;28;20427;-50
2021/12/29 08:26:20;;;;;;;21.63;16.98;;;4.20;99.90;;;;;;5063873;28;20406;-49
2021/12/29 08:28:49;;;;;;;34.53;23.73;;;4.20;99.90;;;;;;5060655;28;20215;-51
2021/12/29 08:31:17;;;;;;;40.35;25.55;;;4.00;99.90;;;;;;5060699;28;20222;-48
2021/12/29 08:33:45;;;;;;;175.90;90.75;;;4.20;99.90;;;;;;5060684;28;20202;-51
2021/12/29 08:36:12;;;;;;;65.07;36.60;;;4.10;99.90;;;;;;5059993;28;20233;-51
2021/12/29 08:38:40;;;;;;;61.70;35.30;;;4.20;99.90;;;;;;5060972;28;20195;-53
2021/12/29 08:41:09;;;;;;;97.18;48.90;;;4.30;99.90;;;;;;5059067;28;20197;-50
2021/12/29 08:43:37;;;;;;;47.63;28.30;;;4.30;99.90;;;;;;5059598;28;20198;-51
2021/12/29 08:46:05;;;;;;;50.33;28.92;;;4.50;99.90;;;;;;5059350;28;20267;-52
2021/12/29 08:48:33;;;;;;;40.28;24.85;;;4.50;99.90;;;;;;5060227;28;20218;-52
2021/12/29 08:51:00;;;;;;;29.10;21.50;;;4.50;99.90;;;;;;5060098;28;20260;-50
2021/12/29 08:53:28;;;;;;;19.35;14.30;;;4.50;99.90;;;;;;5059871;28;20209;-49
2021/12/29 08:55:57;;;;;;;23.80;17.60;;;4.80;99.90;;;;;;5058066;28;20226;-54
2021/12/29 08:58:27;;;;;;;23.98;18.17;;;4.80;99.90;;;;;;5059470;28;20266;-51
2021/12/29 09:01:00;;;;;;;31.85;18.73;;;4.90;99.90;;;;;;5059720;28;20388;-51
2021/12/29 09:03:28;;;;;;;18.50;15.18;;;5.20;99.90;;;;;;5059631;28;20199;-52
2021/12/29 09:05:56;;;;;;;16.40;14.80;;;5.40;99.90;;;;;;5059806;28;20596;-55
2021/12/29 09:08:23;;;;;;;17.75;15.25;;;5.60;99.90;;;;;;5059633;28;20220;-52
2021/12/29 09:10:50;;;;;;;21.90;16.80;;;5.50;99.90;;;;;;5060051;28;20222;-53
2021/12/29 09:13:17;;;;;;;33.92;18.38;;;5.30;99.90;;;;;;5059562;28;20545;-49
2021/12/29 09:15:45;;;;;;;27.60;19.08;;;5.20;99.90;;;;;;5059134;28;20234;-50
2021/12/29 09:18:13;;;;;;;20.80;16.40;;;5.10;99.90;;;;;;5059626;28;20194;-50
2021/12/29 09:20:45;;;;;;;19.13;15.25;;;5.00;99.90;;;;;;5058947;28;20245;-50
2021/12/29 09:23:14;;;;;;;26.80;15.50;;;5.20;99.90;;;;;;5059294;28;20279;-49
2021/12/29 09:25:43;;;;;;;19.20;14.30;;;5.30;99.90;;;;;;5059079;28;20202;-52
2021/12/29 09:28:14;;;;;;;21.35;15.07;;;5.50;99.90;;;;;;5058517;28;20211;-50
2021/12/29 09:30:49;;;;;;;26.63;18.40;;;5.90;99.90;;;;;;5058994;28;20268;-51
2021/12/29 09:33:19;;;;;;;37.13;18.27;;;6.00;99.90;;;;;;5053097;28;20226;-51
2021/12/29 09:35:51;;;;;;;19.10;17.10;;;5.70;99.90;;;;;;5058606;28;20239;-55
2021/12/29 09:38:19;;;;;;;20.10;17.00;;;5.70;99.90;;;;;;5058611;28;20222;-48
2021/12/29 09:40:47;;;;;;;25.13;17.92;;;6.20;99.90;;;;;;5060555;28;20303;-51
2021/12/29 09:43:16;;;;;;;26.42;17.38;;;6.30;99.90;;;;;;5061929;28;20313;-50
2021/12/29 09:45:45;;;;;;;23.90;17.38;;;6.70;99.90;;;;;;5061214;28;20203;-54
2021/12/29 09:48:14;;;;;;;24.20;17.92;;;6.60;99.90;;;;;;5063060;28;20279;-48
2021/12/29 09:50:42;;;;;;;23.90;18.02;;;6.40;99.90;;;;;;5063897;28;20210;-49
2021/12/29 09:53:10;;;;;;;46.50;22.65;;;6.40;99.90;;;;;;5062929;28;20227;-50
2021/12/29 09:55:39;;;;;;;23.48;17.40;;;6.60;99.90;;;;;;5060895;28;20592;-48
2021/12/29 09:58:08;;;;;;;24.23;15.95;;;6.70;99.90;;;;;;5063923;28;20241;-52
2021/12/29 10:00:46;;;;;;;16.70;14.30;;;7.00;99.90;;;;;;5065099;28;20237;-48
2021/12/29 10:03:16;;;;;;;21.13;14.63;;;6.80;99.90;;;;;;5057447;28;20215;-51
2021/12/29 10:05:49;;;;;;;16.52;14.80;;;6.70;99.90;;;;;;5059378;28;20207;-50
2021/12/29 10:08:28;;;;;;;33.20;19.42;;;7.10;99.90;;;;;;5059934;28;20203;-54
2021/12/29 10:10:59;;;;;;;20.98;16.42;;;7.30;99.90;;;;;;5062816;28;20249;-52
2021/12/29 10:13:31;;;;;;;24.17;17.40;;;7.50;99.90;;;;;;5042950;28;20266;-51
2021/12/29 10:16:05;;;;;;;32.47;20.30;;;7.70;99.90;;;;;;5042938;28;20232;-52
2021/12/29 10:18:34;;;;;;;24.48;15.88;;;7.80;99.90;;;;;;5043035;28;20424;-51
2021/12/29 10:21:14;;;;;;;26.05;18.48;;;7.80;99.90;;;;;;5042798;28;20234;-50
2021/12/29 10:23:48;;;;;;;18.55;16.33;;;7.80;99.90;;;;;;5042953;28;20215;-53
2021/12/29 10:26:40;;;;;;;23.60;18.23;;;7.70;99.90;;;;;;5043047;28;20196;-52
2021/12/29 10:29:10;;;;;;;27.23;18.75;;;7.70;99.90;;;;;;5042955;28;20395;-52
2021/12/29 10:31:43;;;;;;;27.13;20.42;;;7.50;99.90;;;;;;5042725;28;20600;-52
2021/12/29 10:34:13;;;;;;;30.15;17.90;;;7.70;99.90;;;;;;5042627;28;20261;-50
2021/12/29 10:36:44;;;;;;;21.00;17.20;;;7.90;99.90;;;;;;5042735;28;20265;-48
2021/12/29 10:39:18;;;;;;;27.15;20.05;;;8.00;99.90;;;;;;5042588;28;20254;-48
2021/12/29 10:41:56;;;;;;;23.75;17.48;;;8.00;99.90;;;;;;5062702;28;20226;-49
2021/12/29 10:44:49;;;;;;;23.92;18.48;;;7.80;99.90;;;;;;5063044;28;20203;-49
2021/12/29 10:47:18;;;;;;;21.48;16.92;;;7.70;99.90;;;;;;5056744;28;20192;-52
2021/12/29 10:49:52;;;;;;;20.60;17.25;;;7.60;99.90;;;;;;5056383;28;20249;-50
2021/12/29 10:52:31;;;;;;;25.35;20.95;;;7.50;99.90;;;;;;5061554;28;20239;-53
2021/12/29 10:54:59;;;;;;;30.50;22.55;;;7.50;99.90;;;;;;5062132;28;20390;-49
2021/12/29 10:57:27;;;;;;;29.52;21.75;;;7.30;99.90;;;;;;5062848;28;20202;-50
2021/12/29 10:59:57;;;;;;;32.67;22.85;;;7.40;99.90;;;;;;5062911;28;20196;-53
2021/12/29 11:02:30;;;;;;;34.92;23.70;;;7.50;99.90;;;;;;5062745;28;20238;-50
2021/12/29 11:05:00;;;;;;;32.00;24.30;;;7.60;99.90;;;;;;5062547;28;20234;-51
2021/12/29 11:07:30;;;;;;;32.20;24.00;;;7.50;99.90;;;;;;5062342;28;20526;-51
2021/12/29 11:10:09;;;;;;;30.77;23.35;;;7.30;99.90;;;;;;5060734;28;20301;-51
2021/12/29 11:12:47;;;;;;;28.85;22.13;;;7.30;99.90;;;;;;5058738;28;20219;-49
2021/12/29 11:15:24;;;;;;;31.65;23.90;;;7.10;99.90;;;;;;5047787;28;20434;-50
2021/12/29 11:17:56;;;;;;;33.45;23.15;;;7.40;99.90;;;;;;5048840;28;20219;-53
2021/12/29 11:20:25;;;;;;;26.70;20.85;;;7.40;99.90;;;;;;5046664;28;20219;-52
2021/12/29 11:23:05;;;;;;;26.67;19.10;;;7.50;99.90;;;;;;5045708;28;20223;-52
2021/12/29 11:25:33;;;;;;;28.98;20.55;;;7.50;99.90;;;;;;5054597;28;20228;-51
2021/12/29 11:28:01;;;;;;;28.45;19.67;;;7.60;99.90;;;;;;5054472;28;20242;-47
2021/12/29 11:30:29;;;;;;;29.90;20.20;;;7.60;99.90;;;;;;5055516;28;20577;-50
2021/12/29 11:33:11;;;;;;;28.15;19.48;;;7.30;99.90;;;;;;5066726;28;20254;-50
2021/12/29 11:35:41;;;;;;;22.92;19.13;;;7.50;99.90;;;;;;5063269;28;20204;-51
2021/12/29 11:38:10;;;;;;;21.25;16.33;;;7.40;99.90;;;;;;5062750;28;20199;-53
2021/12/29 11:40:45;;;;;;;32.17;18.88;;;7.40;99.90;;;;;;5055717;28;20238;-49
2021/12/29 11:43:14;;;;;;;24.70;18.15;;;7.40;99.90;;;;;;5060818;28;20219;-50
2021/12/29 11:45:43;;;;;;;28.75;17.25;;;7.30;99.90;;;;;;5054790;28;20614;-50
2021/12/29 11:48:20;;;;;;;26.50;17.70;;;7.20;99.90;;;;;;5061185;28;20196;-51
2021/12/29 11:50:57;;;;;;;30.38;20.83;;;7.20;99.90;;;;;;5045605;28;20248;-55
2021/12/29 11:53:33;;;;;;;32.45;19.83;;;7.00;99.90;;;;;;5061071;28;20207;-50
2021/12/29 11:56:14;;;;;;;31.17;21.42;;;7.10;99.90;;;;;;5053708;28;20238;-46
2021/12/29 11:58:42;;;;;;;30.08;21.02;;;7.20;99.90;;;;;;5055975;28;20258;-50
2021/12/29 12:01:22;;;;;;;32.03;21.55;;;7.10;99.90;;;;;;5046628;28;20384;-49
2021/12/29 12:04:02;;;;;;;27.33;21.30;;;7.30;99.90;;;;;;5048853;28;20203;-51
2021/12/29 12:06:36;;;;;;;31.48;20.25;;;7.30;99.90;;;;;;5053096;28;20288;-50
2021/12/29 12:09:19;;;;;;;25.27;18.38;;;7.30;99.90;;;;;;5061345;28;20196;-51
2021/12/29 12:11:54;;;;;;;35.25;22.17;;;7.40;99.90;;;;;;5060204;28;20262;-50
2021/12/29 12:14:31;;;;;;;28.38;20.27;;;7.40;99.90;;;;;;5060704;28;20233;-51
2021/12/29 12:17:31;;;;;;;34.53;21.90;;;7.40;99.90;;;;;;5055473;28;20463;-48
2021/12/29 12:20:07;;;;;;;33.13;23.73;;;7.40;99.90;;;;;;5035117;28;20207;-53
2021/12/29 12:22:46;;;;;;;27.98;21.27;;;7.40;99.90;;;;;;5057344;28;20219;-47
2021/12/29 12:25:19;;;;;;;26.63;20.20;;;7.70;99.90;;;;;;5057324;28;20194;-52
2021/12/29 12:27:48;;;;;;;29.10;22.13;;;8.00;99.90;;;;;;5058295;28;20208;-51
2021/12/29 12:30:22;;;;;;;27.70;20.70;;;8.30;99.90;;;;;;5058303;28;20202;-48
2021/12/29 12:32:52;;;;;;;27.58;19.77;;;8.30;99.90;;;;;;5052760;28;20422;-50
2021/12/29 12:35:35;;;;;;;30.23;21.75;;;8.40;99.90;;;;;;5058758;28;20226;-49
2021/12/29 12:38:27;;;;;;;25.65;19.85;;;8.30;99.90;;;;;;5050713;28;20349;-51
2021/12/29 12:41:18;;;;;;;35.42;20.40;;;8.30;99.90;;;;;;5052837;28;20199;-47
2021/12/29 12:43:53;;;;;;;23.42;20.17;;;8.40;99.90;;;;;;5051832;28;20200;-51
2021/12/29 12:46:35;;;;;;;34.13;19.92;;;8.50;99.90;;;;;;5051792;28;20218;-51
2021/12/29 12:49:16;;;;;;;27.40;19.55;;;8.60;99.90;;;;;;5053711;28;20242;-52
2021/12/29 12:51:59;;;;;;;21.92;17.02;;;8.70;99.90;;;;;;5050430;28;20418;-51
2021/12/29 12:54:34;;;;;;;22.13;16.73;;;8.40;99.90;;;;;;5051798;28;20262;-49
2021/12/29 12:57:03;;;;;;;22.15;16.55;;;8.10;99.90;;;;;;5043641;28;20222;-54
2021/12/29 12:59:42;;;;;;;19.85;17.15;;;7.90;99.90;;;;;;5045027;28;20518;-51
2021/12/29 13:02:21;;;;;;;27.02;16.48;;;7.40;99.90;;;;;;5045021;28;20354;-47
2021/12/29 13:05:08;;;;;;;22.80;17.00;;;6.80;99.90;;;;;;5043879;28;20203;-48